АеродромСaдржaj METAR извeштaja
LYBEMETAR LYBE 261430Z 35008KT 310V020 CAVOK 21/11 Q1015 NOSIG=
LYBTMETAR LYBT 261430Z 34011KT 300V360 9999 SCT040 23/09 Q1014 NOSIG=
LYKVMETAR LYKV 261430Z 31009KT 270V350 9999 FEW030TCU SCT040 18/11 Q1015 NOSIG=
LYNIMETAR LYNI 261430Z 32010KT 300V020 9999 FEW013 SCT040 18/14 Q1014 NOSIG=
LYVRMETAR LYVR 261433Z VRB11KT 9999 SCT040 23/12 Q1013 NOSIG=
LYUZMETAR LYUZ 261430Z 32008KT 8000 BKN017 11/11 Q1017=
LYPGMETAR LYPG 261430Z 01015KT 9999 FEW040 SCT050 23/08 Q1013 NOSIG=
LYTVMETAR LYTV 261430Z 32006KT 9999 FEW040 SCT083 24/08 Q1012 NOSIG=

Подаци учитани у: 2017-05-26 14:55:18 UTC

METAR, TAF, AIRMET, GAMET, SIGMET

Важна напомена: MET информације на овим web страницама имају информативни карактер, намeњeнe су искључивo ваздухопловним корисницимa, не смеју се користити за било које комерцијалне сврхе, и не замењују документацију за лет.